Time;durP1;ratioP1;P1;durP2;ratioP2;P2;SDS_P1;SDS_P2;PMS_P1;PMS_P2;Temp;Humidity;BMP_temperature;BMP_pressure;BME280_temperature;BME280_humidity;BME280_pressure;Samples;Min_cycle;Max_cycle;Signal;HPM_P1;HPM_P2
2022/12/16 00:01:25;;;;;;;38.80;17.85;;;-1.40;99.90;;;;;;4996432;28;20683;-82
2022/12/16 00:03:56;;;;;;;37.60;16.05;;;-1.00;99.90;;;;;;4989688;28;20195;-84
2022/12/16 00:06:28;;;;;;;32.00;14.40;;;-1.40;99.90;;;;;;4988414;28;20246;-83
2022/12/16 00:08:53;;;;;;;31.80;15.60;;;-1.40;99.90;;;;;;4986493;28;20180;-81
2022/12/16 00:11:19;;;;;;;32.30;16.60;;;-1.40;99.90;;;;;;4986936;28;20249;-83
2022/12/16 00:13:45;;;;;;;34.20;14.43;;;;;;;;;;4988854;28;20703;-82
2022/12/16 00:16:13;;;;;;;33.87;16.90;;;-1.40;99.90;;;;;;4993394;28;20187;-83
2022/12/16 00:18:39;;;;;;;29.25;16.73;;;-1.30;99.90;;;;;;4993620;28;20445;-82
2022/12/16 00:21:06;;;;;;;28.42;14.82;;;-1.20;99.90;;;;;;4982155;28;20614;-80
2022/12/16 00:23:32;;;;;;;34.08;17.33;;;-1.20;99.90;;;;;;4990096;28;20190;-87
2022/12/16 00:25:58;;;;;;;34.83;18.55;;;;;;;;;;4996436;28;20216;-85
2022/12/16 00:28:24;;;;;;;32.38;16.35;;;-1.10;99.90;;;;;;5003523;28;20212;-81
2022/12/16 00:30:51;;;;;;;36.63;16.77;;;-1.10;99.90;;;;;;5003902;28;20675;-84
2022/12/16 00:33:17;;;;;;;33.15;16.08;;;;;;;;;;5002175;28;20616;-83
2022/12/16 00:35:44;;;;;;;34.78;17.90;;;-1.00;99.90;;;;;;4988704;28;20259;-83
2022/12/16 00:38:10;;;;;;;34.10;17.83;;;-1.00;99.90;;;;;;4987167;28;20642;-82
2022/12/16 00:40:36;;;;;;;34.70;17.10;;;;;;;;;;5000734;28;20193;-80
2022/12/16 00:43:01;;;;;;;42.90;17.33;;;-1.00;99.90;;;;;;4991144;28;20207;-81
2022/12/16 00:45:27;;;;;;;37.23;17.00;;;;;;;;;;4989837;28;20441;-83
2022/12/16 00:47:53;;;;;;;37.70;17.07;;;;;;;;;;4981957;28;20191;-81
2022/12/16 00:50:19;;;;;;;34.40;16.60;;;-1.20;99.90;;;;;;4986784;28;20446;-84
2022/12/16 00:52:45;;;;;;;32.13;16.03;;;;;;;;;;5001347;28;20549;-83
2022/12/16 00:55:11;;;;;;;43.75;17.00;;;;;;;;;;4988368;28;20183;-83
2022/12/16 00:57:37;;;;;;;39.75;18.17;;;-1.50;99.90;;;;;;4991042;28;20732;-85
2022/12/16 01:00:04;;;;;;;31.43;16.70;;;-1.60;99.90;;;;;;5006258;28;20187;-86
2022/12/16 01:02:30;;;;;;;33.03;17.27;;;-1.60;99.90;;;;;;4989892;28;21770;-82
2022/12/16 01:04:56;;;;;;;37.33;16.75;;;-1.70;99.90;;;;;;5025386;28;20195;-86
2022/12/16 01:07:22;;;;;;;46.30;19.20;;;;;;;;;;4992188;28;20244;-84
2022/12/16 01:09:47;;;;;;;31.90;16.40;;;-1.70;99.90;;;;;;4990036;28;20217;-80
2022/12/16 01:12:13;;;;;;;36.73;16.50;;;-1.60;99.90;;;;;;4994725;28;20326;-81
2022/12/16 01:14:39;;;;;;;49.13;18.47;;;;;;;;;;5008289;28;20185;-81
2022/12/16 01:17:05;;;;;;;33.38;15.38;;;;;;;;;;5003791;28;20258;-82
2022/12/16 01:19:31;;;;;;;41.97;17.40;;;;;;;;;;4985105;28;20190;-83
2022/12/16 01:21:56;;;;;;;34.53;18.00;;;-1.60;99.90;;;;;;4987994;28;20207;-82
2022/12/16 01:24:22;;;;;;;45.30;18.60;;;;;;;;;;4989313;28;20455;-79
2022/12/16 01:26:48;;;;;;;29.58;14.80;;;;;;;;;;4986068;28;20206;-83
2022/12/16 01:29:14;;;;;;;33.50;15.70;;;-1.60;99.90;;;;;;5016192;28;20266;-81
2022/12/16 01:31:39;;;;;;;35.37;16.20;;;-1.70;99.90;;;;;;5017981;28;20536;-82
2022/12/16 01:34:05;;;;;;;33.53;16.00;;;-1.60;99.90;;;;;;4996978;28;20192;-81
2022/12/16 01:36:31;;;;;;;39.33;18.27;;;;;;;;;;4990978;28;20269;-86
2022/12/16 01:38:56;;;;;;;39.30;17.73;;;-1.70;99.90;;;;;;4988353;28;20189;-81
2022/12/16 01:41:22;;;;;;;35.53;17.43;;;-1.70;99.90;;;;;;4991964;28;20457;-82
2022/12/16 01:43:48;;;;;;;40.80;18.97;;;;;;;;;;4998228;28;20182;-82
2022/12/16 01:46:13;;;;;;;40.80;16.52;;;-1.60;99.90;;;;;;5012259;28;20253;-79
2022/12/16 01:48:56;;;;;;;31.87;16.10;;;-1.60;99.90;;;;;;4994449;28;20250;-83
2022/12/16 01:51:31;;;;;;;38.88;18.10;;;-1.60;99.90;;;;;;4990945;28;20198;-86
2022/12/16 01:54:00;;;;;;;38.70;17.15;;;-1.60;99.90;;;;;;5000569;28;20178;-84
2022/12/16 01:56:29;;;;;;;43.00;18.23;;;-1.70;99.90;;;;;;4989927;28;20182;-86
2022/12/16 01:58:56;;;;;;;37.40;17.90;;;-1.50;99.90;;;;;;4994601;28;20175;-86
2022/12/16 02:01:22;;;;;;;29.95;14.70;;;;;;;;;;4988769;28;20230;-82
2022/12/16 02:03:49;;;;;;;37.33;16.60;;;-1.40;99.90;;;;;;4988227;28;20447;-84
2022/12/16 02:06:15;;;;;;;26.75;14.10;;;-1.40;99.90;;;;;;4985040;28;20285;-83
2022/12/16 02:08:40;;;;;;;27.00;14.57;;;;;;;;;;4992634;28;20687;-79
2022/12/16 02:11:44;;;;;;;51.87;16.53;;;-1.70;99.90;;;;;;4981363;28;20245;-82
2022/12/16 02:14:23;;;;;;;27.80;14.43;;;-1.70;99.90;;;;;;4990511;28;20596;-85
2022/12/16 02:16:55;;;;;;;28.13;14.85;;;-1.70;99.90;;;;;;4992466;28;20304;-86
2022/12/16 02:19:32;;;;;;;31.45;15.23;;;-1.80;99.90;;;;;;4986215;28;20183;-83
2022/12/16 02:22:17;;;;;;;25.42;14.23;;;-1.70;99.90;;;;;;5000643;28;20413;-81
2022/12/16 02:25:10;;;;;;;41.58;16.17;;;-1.70;99.90;;;;;;4984868;28;20202;-86
2022/12/16 02:27:39;;;;;;;37.70;16.02;;;-1.70;99.90;;;;;;4996058;28;20183;-79
2022/12/16 02:30:38;;;;;;;34.72;15.75;;;-1.70;99.90;;;;;;5003568;28;20198;-83
2022/12/16 02:33:24;;;;;;;34.80;14.13;;;-1.80;99.90;;;;;;5001124;28;20232;-79
2022/12/16 02:36:10;;;;;;;27.13;14.75;;;-2.00;99.90;;;;;;5008022;28;20182;-83
2022/12/16 02:38:41;;;;;;;29.85;13.95;;;-2.00;99.90;;;;;;4988170;28;20194;-82
2022/12/16 02:41:27;;;;;;;29.95;15.70;;;-2.00;99.90;;;;;;4997105;28;20187;-80
2022/12/16 02:43:58;;;;;;;31.33;13.38;;;-1.90;99.90;;;;;;4983915;28;20182;-82
2022/12/16 02:46:26;;;;;;;33.00;16.60;;;-2.00;99.90;;;;;;4991183;28;20254;-83
2022/12/16 02:48:53;;;;;;;37.95;16.88;;;-2.00;99.90;;;;;;4988611;28;20263;-81
2022/12/16 02:51:22;;;;;;;35.63;14.30;;;-2.00;99.90;;;;;;5001080;28;20593;-84
2022/12/16 02:53:49;;;;;;;30.48;14.40;;;-2.00;99.90;;;;;;4992058;28;20826;-83
2022/12/16 02:56:33;;;;;;;34.53;13.52;;;-2.00;99.90;;;;;;4987448;28;20194;-85
2022/12/16 02:59:15;;;;;;;28.45;13.80;;;-2.00;99.90;;;;;;5008128;28;20191;-83
2022/12/16 03:01:51;;;;;;;30.85;12.90;;;-2.00;99.90;;;;;;4997656;28;20812;-82
2022/12/16 03:05:00;;;;;;;25.58;13.70;;;-2.10;99.90;;;;;;4990626;28;20265;-87
2022/12/16 03:07:27;;;;;;;32.88;12.50;;;-2.00;99.90;;;;;;4966621;28;21778;-85
2022/12/16 03:09:55;;;;;;;29.90;13.10;;;-2.10;99.90;;;;;;4986697;28;20175;-85
2022/12/16 03:12:21;;;;;;;27.20;12.73;;;-2.00;99.90;;;;;;4987750;28;20198;-81
2022/12/16 03:14:50;;;;;;;28.88;13.43;;;-2.00;99.90;;;;;;5006792;28;20183;-83
2022/12/16 03:17:17;;;;;;;25.48;12.75;;;-2.00;99.90;;;;;;4987886;28;20186;-83
2022/12/16 03:19:49;;;;;;;29.75;14.50;;;-1.90;99.90;;;;;;5001274;28;20179;-86
2022/12/16 03:22:23;;;;;;;28.50;13.55;;;-1.60;99.90;;;;;;4996214;28;20227;-81
2022/12/16 03:24:49;;;;;;;36.42;14.45;;;;;;;;;;4983598;28;20745;-82
2022/12/16 03:27:34;;;;;;;29.48;13.60;;;-1.70;99.90;;;;;;4992164;28;20189;-85
2022/12/16 03:30:08;;;;;;;24.67;13.65;;;-1.70;99.90;;;;;;4991671;28;20884;-82
2022/12/16 03:32:40;;;;;;;24.63;12.65;;;-1.80;99.90;;;;;;5001188;28;20689;-83
2022/12/16 03:35:22;;;;;;;20.70;11.55;;;-1.80;99.90;;;;;;4991564;28;20194;-85
2022/12/16 03:37:51;;;;;;;19.58;11.20;;;-1.70;99.90;;;;;;4989198;28;20200;-83
2022/12/16 03:40:19;;;;;;;26.92;13.93;;;-1.70;99.90;;;;;;4987433;28;20194;-82
2022/12/16 03:42:45;;;;;;;26.10;12.57;;;;;;;;;;5008916;28;20206;-81
2022/12/16 03:45:15;;;;;;;22.52;11.65;;;-1.50;99.90;;;;;;5003127;28;20179;-85
2022/12/16 03:47:42;;;;;;;25.40;10.68;;;;;;;;;;5007954;28;20183;-83
2022/12/16 03:50:08;;;;;;;27.90;12.60;;;-1.60;99.90;;;;;;4987586;28;20207;-82
2022/12/16 03:52:34;;;;;;;35.87;13.27;;;;;;;;;;5009872;28;20218;-78
2022/12/16 03:55:00;;;;;;;24.73;12.13;;;;;;;;;;5016506;28;20504;-85
2022/12/16 03:57:26;;;;;;;21.33;10.55;;;;;;;;;;4991707;28;20183;-81
2022/12/16 03:59:51;;;;;;;28.77;11.60;;;-1.50;99.90;;;;;;5000925;28;20194;-82
2022/12/16 04:02:17;;;;;;;22.57;12.07;;;-1.30;99.90;;;;;;4997251;28;20473;-84
2022/12/16 04:04:43;;;;;;;25.97;12.47;;;;;;;;;;4988310;28;20194;-82
2022/12/16 04:07:20;;;;;;;22.80;11.53;;;-1.20;99.90;;;;;;4984727;28;20233;-81
2022/12/16 04:09:48;;;;;;;24.20;11.20;;;-0.90;99.90;;;;;;4997918;28;20437;-80
2022/12/16 04:26:03;;;;;;;27.20;11.90;;;-1.10;99.90;;;;;;4986785;28;20194;-83
2022/12/16 04:28:29;;;;;;;21.55;11.63;;;-1.10;99.90;;;;;;4989431;28;20183;-86
2022/12/16 04:30:55;;;;;;;24.50;12.83;;;;;;;;;;4989047;28;20754;-84
